Time,TemperatureF,DewpointF,PressureIn,WindDirection,WindDirectionDegrees,WindSpeedMPH,WindSpeedGustMPH,Humidity,HourlyPrecipIn,Conditions,Clouds,dailyrainin,SolarRadiationWatts/m^2,SoftwareType,DateUTC
2013-02-11 00:21:00,5.0,-6.0,-100.00,NNW,334,6.0,14.0,59,0.00,,,0.00,0.000000,,2013-02-11 07:21:00,
2013-02-11 00:32:00,5.0,-6.0,-100.00,NNW,334,6.0,14.0,59,0.00,,,0.00,0.000000,,2013-02-11 07:32:00,
2013-02-11 00:41:00,5.0,-6.0,-100.00,NNW,334,6.0,14.0,59,0.00,,,0.00,0.000000,,2013-02-11 07:41:00,
2013-02-11 00:51:00,5.0,-6.0,-100.00,NNW,334,6.0,14.0,59,0.00,,,0.00,0.000000,,2013-02-11 07:51:00,
2013-02-11 01:21:00,3.0,-6.0,-100.00,NNW,345,7.0,11.0,65,0.00,,,0.00,0.000000,,2013-02-11 08:21:00,
2013-02-11 01:31:00,3.0,-6.0,-100.00,NNW,345,7.0,11.0,65,0.00,,,0.00,0.000000,,2013-02-11 08:31:00,
2013-02-11 01:42:00,3.0,-6.0,-100.00,NNW,345,7.0,11.0,65,0.00,,,0.00,0.000000,,2013-02-11 08:42:00,
2013-02-11 01:52:00,3.0,-6.0,-100.00,NNW,345,7.0,11.0,65,0.00,,,0.00,0.000000,,2013-02-11 08:52:00,
2013-02-11 02:12:00,-4.0,-12.0,-100.00,NNE,17,8.0,12.0,67,0.00,,,0.00,0.000000,,2013-02-11 09:12:00,
2013-02-11 02:21:00,-4.0,-12.0,-100.00,NNE,17,8.0,12.0,67,0.00,,,0.00,0.000000,,2013-02-11 09:21:00,
2013-02-11 02:31:00,-4.0,-12.0,-100.00,NNE,17,8.0,12.0,67,0.00,,,0.00,0.000000,,2013-02-11 09:31:00,
2013-02-11 02:41:00,-4.0,-12.0,-100.00,NNE,17,8.0,12.0,67,0.00,,,0.00,0.000000,,2013-02-11 09:41:00,
2013-02-11 02:51:00,-4.0,-12.0,-100.00,NNE,17,8.0,12.0,67,0.00,,,0.00,0.000000,,2013-02-11 09:51:00,
2013-02-11 03:21:00,-6.0,-15.0,-100.00,NE,34,4.0,13.0,63,0.00,,,0.00,0.000000,,2013-02-11 10:21:00,
2013-02-11 03:31:00,-6.0,-15.0,-100.00,NE,34,4.0,13.0,63,0.00,,,0.00,0.000000,,2013-02-11 10:31:00,
2013-02-11 03:41:00,-6.0,-15.0,-100.00,NE,34,4.0,13.0,63,0.00,,,0.00,0.000000,,2013-02-11 10:41:00,
2013-02-11 03:51:00,-6.0,-15.0,-100.00,NE,34,4.0,13.0,63,0.00,,,0.00,0.000000,,2013-02-11 10:51:00,
2013-02-11 04:22:00,-8.0,-14.0,-100.00,North,360,4.0,5.0,75,0.00,,,0.00,0.000000,,2013-02-11 11:22:00,
2013-02-11 04:32:00,-8.0,-14.0,-100.00,North,360,4.0,5.0,75,0.00,,,0.00,0.000000,,2013-02-11 11:32:00,
2013-02-11 04:42:00,-8.0,-14.0,-100.00,North,360,4.0,5.0,75,0.00,,,0.00,0.000000,,2013-02-11 11:42:00,
2013-02-11 04:52:00,-8.0,-14.0,-100.00,North,360,4.0,5.0,75,0.00,,,0.00,0.000000,,2013-02-11 11:52:00,
2013-02-11 05:22:00,-11.0,-17.0,-100.00,NW,313,2.0,5.0,73,0.00,,,-99.99,0.000000,,2013-02-11 12:22:00,
2013-02-11 05:31:00,-11.0,-17.0,-100.00,NW,313,2.0,5.0,73,0.00,,,-99.99,0.000000,,2013-02-11 12:31:00,
2013-02-11 05:42:00,-11.0,-17.0,-100.00,NW,313,2.0,5.0,73,0.00,,,-99.99,0.000000,,2013-02-11 12:42:00,
2013-02-11 05:52:00,-11.0,-17.0,-100.00,NW,313,2.0,5.0,73,0.00,,,-99.99,0.000000,,2013-02-11 12:52:00,
2013-02-11 06:21:00,-10.0,-16.0,-100.00,WNW,300,2.0,4.0,75,0.00,,,-99.99,0.000000,,2013-02-11 13:21:00,
2013-02-11 06:32:00,-10.0,-16.0,-100.00,WNW,300,2.0,4.0,75,0.00,,,-99.99,0.000000,,2013-02-11 13:32:00,
2013-02-11 06:41:00,-10.0,-16.0,-100.00,WNW,300,2.0,4.0,75,0.00,,,-99.99,0.000000,,2013-02-11 13:41:00,
2013-02-11 06:51:00,-10.0,-16.0,-100.00,WNW,300,2.0,4.0,75,0.00,,,-99.99,0.000000,,2013-02-11 13:51:00,
2013-02-11 07:21:00,-10.0,-16.0,-100.00,NNW,334,3.0,6.0,75,0.00,,,-99.99,0.000000,,2013-02-11 14:21:00,
2013-02-11 07:32:00,-10.0,-16.0,-100.00,NNW,334,3.0,6.0,75,0.00,,,-99.99,0.000000,,2013-02-11 14:32:00,
2013-02-11 07:42:00,-10.0,-16.0,-100.00,NNW,334,3.0,6.0,75,0.00,,,-99.99,0.000000,,2013-02-11 14:42:00,
2013-02-11 07:52:00,-10.0,-16.0,-100.00,NNW,334,3.0,6.0,75,0.00,,,-99.99,0.000000,,2013-02-11 14:52:00,
2013-02-11 08:22:00,-12.0,-18.0,-100.00,North,2,1.0,5.0,73,0.00,,,0.00,12.000000,,2013-02-11 15:22:00,
2013-02-11 08:32:00,-12.0,-18.0,-100.00,North,2,1.0,5.0,73,0.00,,,0.00,12.000000,,2013-02-11 15:32:00,
2013-02-11 08:42:00,-12.0,-18.0,-100.00,North,2,1.0,5.0,73,0.00,,,0.00,12.000000,,2013-02-11 15:42:00,
2013-02-11 08:51:00,-12.0,-18.0,-100.00,North,2,1.0,5.0,73,0.00,,,0.00,12.000000,,2013-02-11 15:51:00,
2013-02-11 09:21:00,-11.0,-19.0,-100.00,NE,35,7.0,9.0,68,0.00,,,0.00,148.000000,,2013-02-11 16:21:00,
2013-02-11 09:32:00,-11.0,-19.0,-100.00,NE,35,7.0,9.0,68,0.00,,,0.00,148.000000,,2013-02-11 16:32:00,
2013-02-11 09:42:00,-11.0,-19.0,-100.00,NE,35,7.0,9.0,68,0.00,,,0.00,148.000000,,2013-02-11 16:42:00,
2013-02-11 09:52:00,-11.0,-19.0,-100.00,NE,35,7.0,9.0,68,0.00,,,0.00,148.000000,,2013-02-11 16:52:00,
2013-02-11 10:21:00,-4.0,-14.0,-100.00,NE,37,6.0,8.0,60,0.00,,,0.00,296.000000,,2013-02-11 17:21:00,
2013-02-11 10:32:00,-4.0,-14.0,-100.00,NE,37,6.0,8.0,60,0.00,,,0.00,296.000000,,2013-02-11 17:32:00,
2013-02-11 10:42:00,-4.0,-14.0,-100.00,NE,37,6.0,8.0,60,0.00,,,0.00,296.000000,,2013-02-11 17:42:00,
2013-02-11 10:52:00,-4.0,-14.0,-100.00,NE,37,6.0,8.0,60,0.00,,,0.00,296.000000,,2013-02-11 17:52:00,
2013-02-11 11:21:00,1.0,-11.0,-100.00,NNE,28,6.0,7.0,55,0.00,,,-99.99,408.000000,,2013-02-11 18:21:00,
2013-02-11 11:32:00,1.0,-11.0,-100.00,NNE,28,6.0,7.0,55,0.00,,,-99.99,408.000000,,2013-02-11 18:32:00,
2013-02-11 11:42:00,1.0,-11.0,-100.00,NNE,28,6.0,7.0,55,0.00,,,-99.99,408.000000,,2013-02-11 18:42:00,
2013-02-11 11:52:00,1.0,-11.0,-100.00,NNE,28,6.0,7.0,55,0.00,,,-99.99,408.000000,,2013-02-11 18:52:00,
2013-02-11 12:21:00,12.0,-4.0,-100.00,NE,48,2.0,7.0,47,0.00,,,0.00,531.000000,,2013-02-11 19:21:00,
2013-02-11 12:31:00,12.0,-4.0,-100.00,NE,48,2.0,7.0,47,0.00,,,0.00,531.000000,,2013-02-11 19:31:00,
2013-02-11 12:41:00,12.0,-4.0,-100.00,NE,48,2.0,7.0,47,0.00,,,0.00,531.000000,,2013-02-11 19:41:00,
2013-02-11 12:51:00,12.0,-4.0,-100.00,NE,48,2.0,7.0,47,0.00,,,0.00,531.000000,,2013-02-11 19:51:00,
2013-02-11 13:21:00,18.0,-4.0,-100.00,South,171,2.0,2.0,37,0.00,,,0.00,573.000000,,2013-02-11 20:21:00,
2013-02-11 13:31:00,18.0,-4.0,-100.00,South,171,2.0,2.0,37,0.00,,,0.00,573.000000,,2013-02-11 20:31:00,
2013-02-11 13:41:00,18.0,-4.0,-100.00,South,171,2.0,2.0,37,0.00,,,0.00,573.000000,,2013-02-11 20:41:00,
2013-02-11 13:52:00,18.0,-4.0,-100.00,South,171,2.0,2.0,37,0.00,,,0.00,573.000000,,2013-02-11 20:52:00,
2013-02-11 14:21:00,17.0,-2.0,-100.00,South,182,2.0,4.0,43,0.00,,,0.00,570.000000,,2013-02-11 21:21:00,
2013-02-11 14:31:00,17.0,-2.0,-100.00,South,182,2.0,4.0,43,0.00,,,0.00,570.000000,,2013-02-11 21:31:00,
2013-02-11 14:41:00,17.0,-2.0,-100.00,South,182,2.0,4.0,43,0.00,,,0.00,570.000000,,2013-02-11 21:41:00,
2013-02-11 14:51:00,17.0,-2.0,-100.00,South,182,2.0,4.0,43,0.00,,,0.00,570.000000,,2013-02-11 21:51:00,
2013-02-11 15:21:00,20.0,1.0,-100.00,NNE,29,2.0,4.0,43,0.00,,,0.00,493.000000,,2013-02-11 22:21:00,
2013-02-11 15:32:00,20.0,1.0,-100.00,NNE,29,2.0,4.0,43,0.00,,,0.00,493.000000,,2013-02-11 22:32:00,
2013-02-11 15:41:00,20.0,1.0,-100.00,NNE,29,2.0,4.0,43,0.00,,,0.00,493.000000,,2013-02-11 22:41:00,
2013-02-11 15:52:00,20.0,1.0,-100.00,NNE,29,2.0,4.0,43,0.00,,,0.00,493.000000,,2013-02-11 22:52:00,
2013-02-11 16:21:00,20.0,-3.0,-100.00,ENE,69,0.0,3.0,35,0.00,,,0.00,347.000000,,2013-02-11 23:21:00,
2013-02-11 16:31:00,20.0,-3.0,-100.00,ENE,69,0.0,3.0,35,0.00,,,0.00,347.000000,,2013-02-11 23:31:00,
2013-02-11 16:41:00,20.0,-3.0,-100.00,ENE,69,0.0,3.0,35,0.00,,,0.00,347.000000,,2013-02-11 23:41:00,
2013-02-11 16:52:00,20.0,-3.0,-100.00,ENE,69,0.0,3.0,35,0.00,,,0.00,347.000000,,2013-02-11 23:52:00,
2013-02-11 17:21:00,13.0,-3.0,-100.00,SSW,199,2.0,3.0,47,0.00,,,0.00,147.000000,,2013-02-12 00:21:00,
2013-02-11 17:32:00,13.0,-3.0,-100.00,SSW,199,2.0,3.0,47,0.00,,,0.00,147.000000,,2013-02-12 00:32:00,
2013-02-11 17:42:00,13.0,-3.0,-100.00,SSW,199,2.0,3.0,47,0.00,,,0.00,147.000000,,2013-02-12 00:42:00,
2013-02-11 17:51:00,13.0,-3.0,-100.00,SSW,199,2.0,3.0,47,0.00,,,0.00,147.000000,,2013-02-12 00:51:00,
2013-02-11 18:21:00,10.0,-4.0,-100.00,NW,307,0.0,3.0,52,0.00,,,0.00,28.000000,,2013-02-12 01:21:00,
2013-02-11 18:31:00,10.0,-4.0,-100.00,NW,307,0.0,3.0,52,0.00,,,0.00,28.000000,,2013-02-12 01:31:00,
2013-02-11 18:41:00,10.0,-4.0,-100.00,NW,307,0.0,3.0,52,0.00,,,0.00,28.000000,,2013-02-12 01:41:00,
2013-02-11 18:51:00,10.0,-4.0,-100.00,NW,307,0.0,3.0,52,0.00,,,0.00,28.000000,,2013-02-12 01:51:00,
2013-02-11 19:21:00,5.0,-6.0,-100.00,WNW,289,2.0,3.0,60,0.00,,,0.00,1.000000,,2013-02-12 02:21:00,
2013-02-11 19:31:00,5.0,-6.0,-100.00,WNW,289,2.0,3.0,60,0.00,,,0.00,1.000000,,2013-02-12 02:31:00,
2013-02-11 19:41:00,5.0,-6.0,-100.00,WNW,289,2.0,3.0,60,0.00,,,0.00,1.000000,,2013-02-12 02:41:00,
2013-02-11 19:52:00,5.0,-6.0,-100.00,WNW,289,2.0,3.0,60,0.00,,,0.00,1.000000,,2013-02-12 02:52:00,
2013-02-11 20:21:00,3.0,-6.0,-100.00,WNW,288,2.0,4.0,66,0.00,,,0.00,0.000000,,2013-02-12 03:21:00,
2013-02-11 20:31:00,3.0,-6.0,-100.00,WNW,288,2.0,4.0,66,0.00,,,0.00,0.000000,,2013-02-12 03:31:00,
2013-02-11 20:41:00,3.0,-6.0,-100.00,WNW,288,2.0,4.0,66,0.00,,,0.00,0.000000,,2013-02-12 03:41:00,
2013-02-11 20:51:00,3.0,-6.0,-100.00,WNW,288,2.0,4.0,66,0.00,,,0.00,0.000000,,2013-02-12 03:51:00,
2013-02-11 21:11:00,5.0,-4.0,-100.00,NNW,328,6.0,8.0,67,0.00,,,0.00,0.000000,,2013-02-12 04:11:00,
2013-02-11 21:21:00,5.0,-4.0,-100.00,NNW,328,6.0,8.0,67,0.00,,,0.00,0.000000,,2013-02-12 04:21:00,
2013-02-11 21:31:00,5.0,-4.0,-100.00,NNW,328,6.0,8.0,67,0.00,,,0.00,0.000000,,2013-02-12 04:31:00,
2013-02-11 21:41:00,5.0,-4.0,-100.00,NNW,328,6.0,8.0,67,0.00,,,0.00,0.000000,,2013-02-12 04:41:00,
2013-02-11 21:51:00,5.0,-4.0,-100.00,NNW,328,6.0,8.0,67,0.00,,,0.00,0.000000,,2013-02-12 04:51:00,
2013-02-11 22:21:00,2.0,-4.0,-100.00,NW,322,2.0,7.0,74,0.00,,,0.00,0.000000,,2013-02-12 05:21:00,
2013-02-11 22:31:00,2.0,-4.0,-100.00,NW,322,2.0,7.0,74,0.00,,,0.00,0.000000,,2013-02-12 05:31:00,
2013-02-11 22:42:00,2.0,-4.0,-100.00,NW,322,2.0,7.0,74,0.00,,,0.00,0.000000,,2013-02-12 05:42:00,
2013-02-11 22:52:00,2.0,-4.0,-100.00,NW,322,2.0,7.0,74,0.00,,,0.00,0.000000,,2013-02-12 05:52:00,
2013-02-11 23:12:00,-1.0,-7.0,-100.00,SW,227,1.0,3.0,74,0.00,,,0.00,0.000000,,2013-02-12 06:12:00,
2013-02-11 23:21:00,-1.0,-7.0,-100.00,SW,227,1.0,3.0,74,0.00,,,0.00,0.000000,,2013-02-12 06:21:00,
2013-02-11 23:31:00,-1.0,-7.0,-100.00,SW,227,1.0,3.0,74,0.00,,,0.00,0.000000,,2013-02-12 06:31:00,
2013-02-11 23:42:00,-1.0,-7.0,-100.00,SW,227,1.0,3.0,74,0.00,,,0.00,0.000000,,2013-02-12 06:42:00,
2013-02-11 23:51:00,-1.0,-7.0,-100.00,SW,227,1.0,3.0,74,0.00,,,0.00,0.000000,,2013-02-12 06:51:00,